createdAt,value
2019-01-20T00:00:21.621Z,-1.70
2019-01-20T00:02:47.946Z,-1.70
2019-01-20T00:05:15.659Z,-1.70
2019-01-20T00:07:42.132Z,-1.60
2019-01-20T00:10:10.981Z,-1.70
2019-01-20T00:12:37.343Z,-1.70
2019-01-20T00:15:07.355Z,-1.70
2019-01-20T00:17:33.657Z,-1.60
2019-01-20T00:20:00.243Z,-1.70
2019-01-20T00:22:26.571Z,-1.70
2019-01-20T00:24:52.789Z,-1.70
2019-01-20T00:27:18.995Z,-1.70
2019-01-20T00:29:45.214Z,-1.80
2019-01-20T00:32:11.414Z,-1.80
2019-01-20T00:34:37.695Z,-1.90
2019-01-20T00:37:03.894Z,-1.80
2019-01-20T00:39:39.066Z,-1.80
2019-01-20T00:42:05.366Z,-1.90
2019-01-20T00:44:31.634Z,-1.90
2019-01-20T00:46:57.942Z,-1.90
2019-01-20T00:49:24.154Z,-1.90
2019-01-20T00:51:50.378Z,-1.90
2019-01-20T00:54:16.791Z,-1.90
2019-01-20T00:56:43.011Z,-2.00
2019-01-20T00:59:09.209Z,-2.00
2019-01-20T01:01:35.445Z,-2.00
2019-01-20T01:04:01.762Z,-2.00
2019-01-20T01:06:28.422Z,-2.00
2019-01-20T01:08:54.684Z,-1.90
2019-01-20T01:11:20.904Z,-1.90
2019-01-20T01:13:47.122Z,-1.90
2019-01-20T01:16:13.331Z,-2.00
2019-01-20T01:18:39.552Z,-2.00
2019-01-20T01:21:05.759Z,-2.10
2019-01-20T01:23:31.971Z,-2.10
2019-01-20T01:25:58.174Z,-2.00
2019-01-20T01:28:24.403Z,-2.00
2019-01-20T01:30:50.600Z,-2.00
2019-01-20T01:33:16.811Z,-2.00
2019-01-20T01:35:43.042Z,-2.10
2019-01-20T01:38:09.251Z,-2.00
2019-01-20T01:40:35.471Z,-2.00
2019-01-20T01:43:01.670Z,-2.00
2019-01-20T01:45:27.996Z,-2.00
2019-01-20T01:47:54.221Z,-2.00
2019-01-20T01:50:20.538Z,-2.10
2019-01-20T01:52:47.147Z,-2.00
2019-01-20T01:55:13.567Z,-2.20
2019-01-20T01:57:39.979Z,-2.20
2019-01-20T02:00:10.441Z,-2.20
2019-01-20T02:02:36.738Z,-2.30
2019-01-20T02:05:05.479Z,-2.30
2019-01-20T02:07:51.539Z,-2.30
2019-01-20T02:10:19.945Z,-2.30
2019-01-20T02:12:47.473Z,-2.30
2019-01-20T02:15:16.295Z,-2.30
2019-01-20T02:17:42.630Z,-2.30
2019-01-20T02:20:11.841Z,-2.30
2019-01-20T02:22:38.360Z,-2.20
2019-01-20T02:25:05.065Z,-2.20
2019-01-20T02:27:31.290Z,-2.20
2019-01-20T02:29:57.754Z,-2.20
2019-01-20T02:32:23.976Z,-2.20
2019-01-20T02:35:10.427Z,-2.20
2019-01-20T02:37:36.664Z,-2.10
2019-01-20T02:40:11.976Z,-2.30
2019-01-20T02:42:38.191Z,-2.30
2019-01-20T02:45:06.891Z,-2.20
2019-01-20T02:47:33.133Z,-2.30
2019-01-20T02:49:59.330Z,-2.30
2019-01-20T02:52:25.565Z,-2.40
2019-01-20T02:54:51.764Z,-2.40
2019-01-20T02:57:17.976Z,-2.40
2019-01-20T02:59:44.507Z,-2.40
2019-01-20T03:02:10.906Z,-2.40
2019-01-20T03:04:37.134Z,-2.40
2019-01-20T03:07:03.438Z,-2.50
2019-01-20T03:09:29.685Z,-2.50
2019-01-20T03:12:03.273Z,-2.60
2019-01-20T03:14:24.024Z,-2.60
2019-01-20T03:16:50.458Z,-2.60
2019-01-20T03:19:16.874Z,-2.60
2019-01-20T03:21:43.079Z,-2.60
2019-01-20T03:24:09.302Z,-2.60
2019-01-20T03:26:35.508Z,-2.70
2019-01-20T03:29:01.740Z,-2.60
2019-01-20T03:31:28.144Z,-2.60
2019-01-20T03:33:54.367Z,-2.60
2019-01-20T03:36:20.683Z,-2.60
2019-01-20T03:38:46.903Z,-2.60
2019-01-20T03:41:13.117Z,-2.60
2019-01-20T03:43:39.319Z,-2.60
2019-01-20T03:46:05.843Z,-2.60
2019-01-20T03:48:32.042Z,-2.60
2019-01-20T03:50:58.278Z,-2.70
2019-01-20T03:53:24.572Z,-2.70
2019-01-20T03:55:51.237Z,-2.70
2019-01-20T03:58:17.494Z,-2.70
2019-01-20T04:00:46.487Z,-2.70
2019-01-20T04:03:12.691Z,-2.80
2019-01-20T04:05:38.916Z,-2.80
2019-01-20T04:08:05.231Z,-2.90
2019-01-20T04:10:31.770Z,-2.90
2019-01-20T04:12:57.971Z,-2.90
2019-01-20T04:15:24.174Z,-2.90
2019-01-20T04:17:50.394Z,-2.90
2019-01-20T04:20:16.926Z,-2.90
2019-01-20T04:22:43.234Z,-2.90
2019-01-20T04:25:15.474Z,-2.90
2019-01-20T04:27:41.698Z,-2.90
2019-01-20T04:30:10.212Z,-2.90
2019-01-20T04:32:36.425Z,-2.90
2019-01-20T04:35:04.639Z,-2.90
2019-01-20T04:37:30.883Z,-3.00
2019-01-20T04:39:57.094Z,-3.10
2019-01-20T04:42:28.958Z,-3.10
2019-01-20T04:44:51.410Z,-3.10
2019-01-20T04:47:17.723Z,-3.10
2019-01-20T04:49:43.930Z,-3.10
2019-01-20T04:52:10.181Z,-3.00
2019-01-20T04:54:36.375Z,-3.10
2019-01-20T04:57:03.038Z,-3.20
2019-01-20T04:59:29.270Z,-3.20
2019-01-20T05:01:55.603Z,-3.20
2019-01-20T05:04:21.831Z,-3.10
2019-01-20T05:06:48.139Z,-3.20
2019-01-20T05:09:14.367Z,-3.30
2019-01-20T05:11:40.563Z,-3.30
2019-01-20T05:14:06.787Z,-3.30
2019-01-20T05:16:33.194Z,-3.30
2019-01-20T05:18:59.415Z,-3.30
2019-01-20T05:21:25.613Z,-3.30
2019-01-20T05:23:51.830Z,-3.30
2019-01-20T05:26:18.034Z,-3.30
2019-01-20T05:28:44.265Z,-3.30
2019-01-20T05:31:10.791Z,-3.40
2019-01-20T05:33:37.025Z,-3.40
2019-01-20T05:36:03.327Z,-3.40
2019-01-20T05:38:29.658Z,-3.40
2019-01-20T05:40:55.931Z,-3.40
2019-01-20T05:43:22.267Z,-3.40
2019-01-20T05:45:48.467Z,-3.40
2019-01-20T05:48:14.686Z,-3.40
2019-01-20T05:50:41.007Z,-3.40
2019-01-20T05:53:07.211Z,-3.50
2019-01-20T05:55:34.171Z,-3.40
2019-01-20T05:58:00.394Z,-3.40
2019-01-20T06:00:28.170Z,-3.40
2019-01-20T06:02:54.490Z,-3.50
2019-01-20T06:05:20.730Z,-3.50
2019-01-20T06:07:47.030Z,-3.50
2019-01-20T06:10:13.562Z,-3.40
2019-01-20T06:12:39.918Z,-3.40
2019-01-20T06:15:12.320Z,-3.40
2019-01-20T06:17:38.519Z,-3.40
2019-01-20T06:20:07.138Z,-3.40
2019-01-20T06:22:33.339Z,-3.40
2019-01-20T06:24:59.583Z,-3.40
2019-01-20T06:27:25.791Z,-3.40
2019-01-20T06:29:52.199Z,-3.50
2019-01-20T06:32:18.427Z,-3.40
2019-01-20T06:34:44.622Z,-3.40
2019-01-20T06:37:10.838Z,-3.40
2019-01-20T06:39:37.342Z,-3.40
2019-01-20T06:42:03.563Z,-3.30
2019-01-20T06:44:29.781Z,-3.40
2019-01-20T06:46:56.127Z,-3.40
2019-01-20T06:49:22.339Z,-3.50
2019-01-20T06:51:48.564Z,-3.50
2019-01-20T06:54:14.762Z,-3.60
2019-01-20T06:56:40.978Z,-3.50
2019-01-20T06:59:07.182Z,-3.50
2019-01-20T07:01:33.418Z,-3.50
2019-01-20T07:03:59.650Z,-3.50
2019-01-20T07:06:25.854Z,-3.50
2019-01-20T07:08:52.102Z,-3.50
2019-01-20T07:11:18.389Z,-3.60
2019-01-20T07:13:44.630Z,-3.50
2019-01-20T07:16:10.834Z,-3.60
2019-01-20T07:18:37.050Z,-3.60
2019-01-20T07:21:03.457Z,-3.50
2019-01-20T07:23:29.688Z,-3.50
2019-01-20T07:25:55.998Z,-3.50
2019-01-20T07:28:22.314Z,-3.50
2019-01-20T07:30:48.519Z,-3.50
2019-01-20T07:33:14.986Z,-3.50
2019-01-20T07:35:41.295Z,-3.50
2019-01-20T07:38:07.516Z,-3.50
2019-01-20T07:40:33.818Z,-3.50
2019-01-20T07:43:00.058Z,-3.50
2019-01-20T07:45:26.307Z,-3.40
2019-01-20T07:47:52.554Z,-3.40
2019-01-20T07:50:20.967Z,-3.40
2019-01-20T07:52:47.279Z,-3.30
2019-01-20T07:55:13.522Z,-3.40
2019-01-20T07:57:39.826Z,-3.30
2019-01-20T08:00:26.273Z,-3.30
2019-01-20T08:02:52.689Z,-3.30
2019-01-20T08:05:20.919Z,-3.20
2019-01-20T08:07:47.325Z,-3.30
2019-01-20T08:10:19.862Z,-3.20
2019-01-20T08:12:46.470Z,-3.10
2019-01-20T08:15:14.397Z,-3.10
2019-01-20T08:17:40.611Z,-3.10
2019-01-20T08:20:10.620Z,-3.00
2019-01-20T08:22:36.907Z,-3.00
2019-01-20T08:25:06.038Z,-3.00
2019-01-20T08:27:32.331Z,-2.90
2019-01-20T08:29:58.667Z,-2.90
2019-01-20T08:32:24.867Z,-2.80
2019-01-20T08:34:51.174Z,-2.80
2019-01-20T08:37:17.382Z,-2.70
2019-01-20T08:39:43.579Z,-2.70
2019-01-20T08:42:09.802Z,-2.60
2019-01-20T08:44:36.028Z,-2.50
2019-01-20T08:47:11.282Z,-2.50
2019-01-20T08:49:37.490Z,-2.50
2019-01-20T08:52:03.867Z,-2.40
2019-01-20T08:54:30.182Z,-2.40
2019-01-20T08:56:56.406Z,-2.40
2019-01-20T08:59:22.608Z,-2.30
2019-01-20T09:01:48.830Z,-2.30
2019-01-20T09:04:15.034Z,-2.20
2019-01-20T09:06:41.374Z,-2.10
2019-01-20T09:09:07.578Z,-2.00
2019-01-20T09:11:33.798Z,-1.90
2019-01-20T09:14:00.001Z,-1.90
2019-01-20T09:16:26.231Z,-1.80
2019-01-20T09:18:52.827Z,-1.70
2019-01-20T09:21:19.036Z,-1.70
2019-01-20T09:23:45.315Z,-1.70
2019-01-20T09:26:11.524Z,-1.70
2019-01-20T09:28:37.750Z,-1.60
2019-01-20T09:31:03.959Z,-1.60
2019-01-20T09:33:30.178Z,-1.60
2019-01-20T09:35:56.377Z,-1.60
2019-01-20T09:38:22.593Z,-1.40
2019-01-20T09:40:48.802Z,-1.30
2019-01-20T09:43:15.037Z,-1.40
2019-01-20T09:45:41.337Z,-1.30
2019-01-20T09:48:07.658Z,-1.30
2019-01-20T09:50:33.864Z,-1.20
2019-01-20T09:53:00.086Z,-1.20
2019-01-20T09:55:26.400Z,-1.10
2019-01-20T09:57:52.718Z,-1.00
2019-01-20T10:00:25.985Z,-0.90
2019-01-20T10:02:52.411Z,-1.00
2019-01-20T10:05:18.621Z,-0.90
2019-01-20T10:07:44.930Z,-0.80
2019-01-20T10:10:17.549Z,-0.80
2019-01-20T10:12:43.859Z,-0.80
2019-01-20T10:15:12.687Z,-0.80
2019-01-20T10:17:38.893Z,-0.80
2019-01-20T10:20:17.681Z,-0.70
2019-01-20T10:22:43.882Z,-0.60
2019-01-20T10:25:15.086Z,-0.40
2019-01-20T10:27:38.422Z,-0.50
2019-01-20T10:30:13.754Z,-0.40
2019-01-20T10:32:39.966Z,-0.30
2019-01-20T10:35:06.882Z,-0.10
2019-01-20T10:37:33.999Z,-0.10
2019-01-20T10:40:00.241Z,-0.10
2019-01-20T10:42:26.524Z,-0.10
2019-01-20T10:44:52.766Z,0.10
2019-01-20T10:47:18.971Z,0.10
2019-01-20T10:49:50.617Z,0.20
2019-01-20T10:52:16.713Z,0.20
2019-01-20T10:54:44.875Z,0.30
2019-01-20T10:57:11.075Z,0.20
2019-01-20T10:59:37.298Z,0.20
2019-01-20T11:02:03.694Z,0.20
2019-01-20T11:04:29.919Z,0.30
2019-01-20T11:06:56.123Z,0.40
2019-01-20T11:09:22.238Z,0.50
2019-01-20T11:11:48.495Z,0.50
2019-01-20T11:14:15.010Z,0.50
2019-01-20T11:16:41.619Z,0.60
2019-01-20T11:19:07.846Z,0.70
2019-01-20T11:21:34.054Z,0.80
2019-01-20T11:24:00.470Z,0.70
2019-01-20T11:26:27.070Z,0.80
2019-01-20T11:28:53.270Z,0.90
2019-01-20T11:31:19.494Z,0.90
2019-01-20T11:33:45.718Z,1.00
2019-01-20T11:36:11.945Z,1.00
2019-01-20T11:38:38.151Z,1.00
2019-01-20T11:41:06.319Z,1.10
2019-01-20T11:43:32.539Z,1.30
2019-01-20T11:45:58.754Z,1.30
2019-01-20T11:48:24.967Z,1.40
2019-01-20T11:50:51.175Z,1.30
2019-01-20T11:53:17.488Z,1.50
2019-01-20T11:55:44.002Z,1.60
2019-01-20T11:58:10.197Z,1.60
2019-01-20T12:00:37.062Z,1.80
2019-01-20T12:03:03.773Z,1.80
2019-01-20T12:05:31.170Z,1.80
2019-01-20T12:07:57.488Z,1.70
2019-01-20T12:10:24.065Z,1.80
2019-01-20T12:12:52.198Z,1.80
2019-01-20T12:15:18.501Z,1.90
2019-01-20T12:17:45.022Z,1.90
2019-01-20T12:20:13.141Z,2.00
2019-01-20T12:22:39.463Z,2.10
2019-01-20T12:25:16.919Z,2.20
2019-01-20T12:27:43.146Z,2.30
2019-01-20T12:30:27.854Z,2.30
2019-01-20T12:32:54.082Z,2.40
2019-01-20T12:35:20.342Z,2.50
2019-01-20T12:37:46.798Z,2.50
2019-01-20T12:40:25.656Z,2.50
2019-01-20T12:42:52.114Z,2.60
2019-01-20T12:45:18.479Z,2.60
2019-01-20T12:47:44.837Z,2.60
2019-01-20T12:50:13.961Z,2.70
2019-01-20T12:52:40.259Z,2.70
2019-01-20T12:55:07.094Z,2.90
2019-01-20T12:57:33.303Z,3.00
2019-01-20T12:59:59.530Z,3.00
2019-01-20T13:02:26.002Z,2.90
2019-01-20T13:04:56.351Z,3.00
2019-01-20T13:07:20.355Z,3.10
2019-01-20T13:09:46.575Z,3.10
2019-01-20T13:12:12.824Z,3.20
2019-01-20T13:14:39.352Z,3.30
2019-01-20T13:17:05.753Z,3.30
2019-01-20T13:19:32.582Z,3.30
2019-01-20T13:22:02.378Z,3.50
2019-01-20T13:24:28.985Z,3.60
2019-01-20T13:26:55.187Z,3.40
2019-01-20T13:29:21.586Z,3.30
2019-01-20T13:31:47.875Z,3.40
2019-01-20T13:34:14.070Z,3.30
2019-01-20T13:36:40.296Z,3.30
2019-01-20T13:39:08.704Z,3.10
2019-01-20T13:41:34.918Z,3.20
2019-01-20T13:44:01.132Z,3.30
2019-01-20T13:46:27.354Z,3.30
2019-01-20T13:48:53.550Z,3.50
2019-01-20T13:51:19.768Z,3.70
2019-01-20T13:53:46.058Z,3.80
2019-01-20T13:56:12.291Z,4.00
2019-01-20T13:58:38.495Z,4.00
2019-01-20T14:01:04.893Z,4.10
2019-01-20T14:03:31.115Z,4.10
2019-01-20T14:05:57.315Z,4.10
2019-01-20T14:08:23.530Z,4.00
2019-01-20T14:10:49.725Z,4.10
2019-01-20T14:13:15.954Z,4.30
2019-01-20T14:15:42.163Z,4.40
2019-01-20T14:18:08.374Z,4.30
2019-01-20T14:20:34.587Z,4.20
2019-01-20T14:23:00.905Z,4.30
2019-01-20T14:25:28.625Z,4.30
2019-01-20T14:27:55.035Z,4.40
2019-01-20T14:30:31.951Z,4.50
2019-01-20T14:33:18.127Z,4.50
2019-01-20T14:35:44.423Z,4.40
2019-01-20T14:38:10.642Z,4.40
2019-01-20T14:40:36.950Z,4.40
2019-01-20T14:43:03.774Z,4.50
2019-01-20T14:45:30.154Z,4.40
2019-01-20T14:47:56.602Z,4.40
2019-01-20T14:50:24.735Z,4.40
2019-01-20T14:52:51.034Z,4.40
2019-01-20T14:55:17.487Z,4.40
2019-01-20T14:57:43.790Z,4.30
2019-01-20T15:00:16.690Z,4.30
2019-01-20T15:02:43.098Z,4.60
2019-01-20T15:05:09.624Z,5.00
2019-01-20T15:07:35.837Z,5.60
2019-01-20T15:10:05.862Z,6.40
2019-01-20T15:12:32.171Z,7.00
2019-01-20T15:14:58.428Z,7.40
2019-01-20T15:17:24.635Z,8.00
2019-01-20T15:19:51.227Z,8.20
2019-01-20T15:22:17.456Z,8.20
2019-01-20T15:24:43.808Z,7.50
2019-01-20T15:27:10.030Z,6.30
2019-01-20T15:29:36.330Z,5.00
2019-01-20T15:32:02.773Z,4.30
2019-01-20T15:34:28.979Z,3.60
2019-01-20T15:36:55.214Z,3.40
2019-01-20T15:39:21.642Z,3.10
2019-01-20T15:41:47.907Z,2.90
2019-01-20T15:44:14.171Z,2.50
2019-01-20T15:46:40.402Z,2.30
2019-01-20T15:49:06.604Z,2.10
2019-01-20T15:51:32.941Z,2.00
2019-01-20T15:53:59.143Z,1.90
2019-01-20T15:56:25.347Z,1.70
2019-01-20T15:58:51.575Z,1.50
2019-01-20T16:01:17.786Z,1.40
2019-01-20T16:03:44.102Z,1.30
2019-01-20T16:06:10.433Z,1.20
2019-01-20T16:08:36.666Z,1.20
2019-01-20T16:11:03.046Z,1.10
2019-01-20T16:13:29.276Z,1.00
2019-01-20T16:16:04.805Z,1.00
2019-01-20T16:18:31.049Z,0.90
2019-01-20T16:20:57.267Z,0.80
2019-01-20T16:23:23.667Z,0.70
2019-01-20T16:25:49.875Z,0.70
2019-01-20T16:28:17.023Z,0.70
2019-01-20T16:30:43.414Z,0.60
2019-01-20T16:33:09.830Z,0.60
2019-01-20T16:35:36.045Z,0.60
2019-01-20T16:38:02.581Z,0.60
2019-01-20T16:40:28.883Z,0.60
2019-01-20T16:42:55.399Z,0.50
2019-01-20T16:45:32.872Z,0.50
2019-01-20T16:47:56.293Z,0.50
2019-01-20T16:50:24.053Z,0.40
2019-01-20T16:52:54.536Z,0.30
2019-01-20T16:55:19.882Z,0.30
2019-01-20T16:57:46.091Z,0.30
2019-01-20T17:00:30.451Z,0.20
2019-01-20T17:02:56.857Z,0.10
2019-01-20T17:05:26.783Z,0.10
2019-01-20T17:07:51.598Z,-0.10
2019-01-20T17:10:20.114Z,-0.10
2019-01-20T17:12:46.762Z,-0.10
2019-01-20T17:15:16.083Z,-0.30
2019-01-20T17:17:42.290Z,-0.30
2019-01-20T17:20:10.212Z,-0.30
2019-01-20T17:22:36.530Z,-0.30
2019-01-20T17:25:05.751Z,-0.30
2019-01-20T17:27:31.959Z,-0.30
2019-01-20T17:29:58.162Z,-0.50
2019-01-20T17:32:24.391Z,-0.40
2019-01-20T17:34:56.181Z,-0.50
2019-01-20T17:37:22.516Z,-0.50
2019-01-20T17:39:48.731Z,-0.50
2019-01-20T17:42:14.950Z,-0.60
2019-01-20T17:44:41.152Z,-0.50
2019-01-20T17:47:07.363Z,-0.50
2019-01-20T17:49:33.565Z,-0.50
2019-01-20T17:51:59.778Z,-0.50
2019-01-20T17:54:25.978Z,-0.50
2019-01-20T17:56:52.204Z,-0.60
2019-01-20T17:59:18.399Z,-0.60
2019-01-20T18:01:44.618Z,-0.50
2019-01-20T18:04:10.823Z,-0.50
2019-01-20T18:06:37.035Z,-0.40
2019-01-20T18:09:07.158Z,-0.50
2019-01-20T18:11:33.475Z,-0.50
2019-01-20T18:13:59.706Z,-0.50
2019-01-20T18:16:25.996Z,-0.60
2019-01-20T18:18:52.227Z,-0.60
2019-01-20T18:21:18.458Z,-0.50
2019-01-20T18:23:44.683Z,-0.60
2019-01-20T18:26:10.878Z,-0.60
2019-01-20T18:28:37.110Z,-0.50
2019-01-20T18:31:03.410Z,-0.60
2019-01-20T18:33:29.615Z,-0.70
2019-01-20T18:35:55.843Z,-0.80
2019-01-20T18:38:22.065Z,-0.90
2019-01-20T18:40:48.392Z,-0.90
2019-01-20T18:43:14.586Z,-0.90
2019-01-20T18:45:40.803Z,-0.80
2019-01-20T18:48:07.206Z,-0.90
2019-01-20T18:50:35.435Z,-0.90
2019-01-20T18:53:01.754Z,-1.00
2019-01-20T18:55:28.032Z,-1.00
2019-01-20T18:57:54.230Z,-1.00
2019-01-20T19:00:22.751Z,-1.00
2019-01-20T19:02:49.255Z,-0.90
2019-01-20T19:05:16.578Z,-1.10
2019-01-20T19:07:42.778Z,-1.10
2019-01-20T19:10:12.406Z,-1.10
2019-01-20T19:12:38.603Z,-1.10
2019-01-20T19:15:08.326Z,-1.10
2019-01-20T19:17:34.530Z,-1.10
2019-01-20T19:20:00.895Z,-1.00
2019-01-20T19:22:27.178Z,-1.00
2019-01-20T19:24:53.407Z,-1.10
2019-01-20T19:27:19.606Z,-1.10
2019-01-20T19:29:45.822Z,-1.10
2019-01-20T19:32:12.047Z,-1.20
2019-01-20T19:34:38.262Z,-1.20
2019-01-20T19:37:04.507Z,-1.20
2019-01-20T19:39:30.717Z,-1.30
2019-01-20T19:41:56.931Z,-1.30
2019-01-20T19:44:23.151Z,-1.30
2019-01-20T19:46:49.366Z,-1.30
2019-01-20T19:49:15.566Z,-1.30
2019-01-20T19:51:41.804Z,-1.40
2019-01-20T19:54:08.022Z,-1.40
2019-01-20T19:56:34.225Z,-1.30
2019-01-20T19:59:00.451Z,-1.30
2019-01-20T20:01:30.761Z,-1.40
2019-01-20T20:03:54.839Z,-1.40
2019-01-20T20:06:21.204Z,-1.40
2019-01-20T20:09:09.188Z,-1.50
2019-01-20T20:11:35.417Z,-1.30
2019-01-20T20:14:01.752Z,-1.50
2019-01-20T20:16:27.959Z,-1.60
2019-01-20T20:18:54.180Z,-1.60
2019-01-20T20:21:20.393Z,-1.60
2019-01-20T20:23:46.747Z,-1.60
2019-01-20T20:26:12.958Z,-1.60
2019-01-20T20:28:39.171Z,-1.70
2019-01-20T20:31:05.599Z,-1.80
2019-01-20T20:33:31.802Z,-1.80
2019-01-20T20:35:58.023Z,-1.80
2019-01-20T20:38:24.234Z,-1.80
2019-01-20T20:40:50.458Z,-1.80
2019-01-20T20:43:16.662Z,-1.80
2019-01-20T20:45:42.831Z,-1.80
2019-01-20T20:48:09.411Z,-1.90
2019-01-20T20:50:35.909Z,-2.00
2019-01-20T20:53:02.411Z,-2.00
2019-01-20T20:55:28.635Z,-2.00
2019-01-20T20:57:54.834Z,-2.00
2019-01-20T21:00:24.043Z,-2.00
2019-01-20T21:02:50.263Z,-2.10
2019-01-20T21:05:16.771Z,-2.10
2019-01-20T21:07:43.186Z,-2.10
2019-01-20T21:10:14.723Z,-2.20
2019-01-20T21:12:41.140Z,-2.20
2019-01-20T21:15:10.042Z,-2.20
2019-01-20T21:17:36.285Z,-2.20
2019-01-20T21:20:05.998Z,-2.20
2019-01-20T21:22:32.214Z,-2.20
2019-01-20T21:24:58.427Z,-2.20
2019-01-20T21:27:24.634Z,-2.30
2019-01-20T21:29:50.858Z,-2.30
2019-01-20T21:32:17.067Z,-2.30
2019-01-20T21:34:43.303Z,-2.40
2019-01-20T21:37:09.518Z,-2.40
2019-01-20T21:39:35.738Z,-2.40
2019-01-20T21:42:01.974Z,-2.40
2019-01-20T21:44:28.194Z,-2.40
2019-01-20T21:46:54.402Z,-2.40
2019-01-20T21:49:20.623Z,-2.40
2019-01-20T21:51:47.190Z,-2.50
2019-01-20T21:54:13.494Z,-2.50
2019-01-20T21:56:39.712Z,-2.60
2019-01-20T21:59:08.731Z,-2.60
2019-01-20T22:01:35.273Z,-2.50
2019-01-20T22:04:01.482Z,-2.50
2019-01-20T22:06:27.718Z,-2.60
2019-01-20T22:08:53.922Z,-2.60
2019-01-20T22:11:20.139Z,-2.60
2019-01-20T22:13:46.345Z,-2.60
2019-01-20T22:16:12.563Z,-2.50
2019-01-20T22:18:38.776Z,-2.60
2019-01-20T22:21:05.098Z,-2.70
2019-01-20T22:23:31.299Z,-2.70
2019-01-20T22:25:57.499Z,-2.70
2019-01-20T22:28:23.830Z,-2.70
2019-01-20T22:30:50.039Z,-2.80
2019-01-20T22:33:16.259Z,-2.80
2019-01-20T22:35:42.450Z,-2.80
2019-01-20T22:38:08.690Z,-2.80
2019-01-20T22:40:34.889Z,-2.80
2019-01-20T22:43:01.120Z,-2.90
2019-01-20T22:45:27.313Z,-2.80
2019-01-20T22:47:53.635Z,-2.70
2019-01-20T22:50:25.802Z,-2.80
2019-01-20T22:52:52.432Z,-2.90
2019-01-20T22:55:18.753Z,-2.80
2019-01-20T22:57:45.083Z,-2.90
2019-01-20T23:00:21.411Z,-2.80
2019-01-20T23:02:47.810Z,-2.80
2019-01-20T23:05:14.470Z,-2.90
2019-01-20T23:07:40.703Z,-2.90
2019-01-20T23:10:07.227Z,-3.00
2019-01-20T23:12:33.430Z,-3.00
2019-01-20T23:14:59.815Z,-3.00
2019-01-20T23:17:26.023Z,-3.10
2019-01-20T23:19:52.222Z,-3.00
2019-01-20T23:22:18.445Z,-3.00
2019-01-20T23:24:44.651Z,-3.10
2019-01-20T23:27:10.870Z,-3.00
2019-01-20T23:29:37.084Z,-3.00
2019-01-20T23:32:03.515Z,-3.00
2019-01-20T23:34:29.775Z,-3.00
2019-01-20T23:36:55.998Z,-3.10
2019-01-20T23:39:22.223Z,-3.10
2019-01-20T23:41:48.477Z,-3.10
2019-01-20T23:44:14.679Z,-3.10
2019-01-20T23:46:40.870Z,-3.10
2019-01-20T23:49:07.134Z,-3.10
2019-01-20T23:51:33.330Z,-3.20
2019-01-20T23:53:59.559Z,-3.20
2019-01-20T23:56:25.754Z,-3.10
2019-01-20T23:58:51.983Z,-3.20
